sensor_id;sensor_type;location;lat;lon;timestamp;pressure;altitude;pressure_sealevel;temperature;humidity
16094;BME280;8151;47.824;12.092;2022-08-30T00:02:09;96551.94;;;19.24;74.90
16094;BME280;8151;47.824;12.092;2022-08-30T00:04:38;96556.50;;;19.24;75.03
16094;BME280;8151;47.824;12.092;2022-08-30T00:07:07;96551.41;;;19.16;75.19
16094;BME280;8151;47.824;12.092;2022-08-30T00:09:35;96554.28;;;19.14;75.20
16094;BME280;8151;47.824;12.092;2022-08-30T00:12:04;96547.94;;;19.08;75.28
16094;BME280;8151;47.824;12.092;2022-08-30T00:14:34;96543.66;;;19.01;75.72
16094;BME280;8151;47.824;12.092;2022-08-30T00:17:03;96544.13;;;18.91;75.97
16094;BME280;8151;47.824;12.092;2022-08-30T00:19:31;96549.28;;;18.93;76.10
16094;BME280;8151;47.824;12.092;2022-08-30T00:22:00;96545.16;;;18.90;75.96
16094;BME280;8151;47.824;12.092;2022-08-30T00:24:29;96545.16;;;18.90;76.05
16094;BME280;8151;47.824;12.092;2022-08-30T00:26:58;96537.75;;;18.92;76.09
16094;BME280;8151;47.824;12.092;2022-08-30T00:29:26;96542.47;;;18.97;75.95
16094;BME280;8151;47.824;12.092;2022-08-30T00:31:56;96533.75;;;19.01;75.80
16094;BME280;8151;47.824;12.092;2022-08-30T00:34:24;96540.97;;;19.01;75.80
16094;BME280;8151;47.824;12.092;2022-08-30T00:36:53;96546.56;;;18.99;75.82
16094;BME280;8151;47.824;12.092;2022-08-30T00:39:21;96540.81;;;18.96;75.89
16094;BME280;8151;47.824;12.092;2022-08-30T00:41:50;96533.63;;;18.89;76.02
16094;BME280;8151;47.824;12.092;2022-08-30T00:44:18;96531.16;;;18.88;76.03
16094;BME280;8151;47.824;12.092;2022-08-30T00:46:47;96527.88;;;18.86;76.07
16094;BME280;8151;47.824;12.092;2022-08-30T00:49:17;96534.72;;;18.82;76.15
16094;BME280;8151;47.824;12.092;2022-08-30T00:51:45;96532.66;;;18.77;76.30
16094;BME280;8151;47.824;12.092;2022-08-30T00:54:14;96526.50;;;18.70;76.38
16094;BME280;8151;47.824;12.092;2022-08-30T00:56:44;96531.31;;;18.61;76.60
16094;BME280;8151;47.824;12.092;2022-08-30T00:59:13;96524.75;;;18.57;76.69
16094;BME280;8151;47.824;12.092;2022-08-30T01:01:42;96533.19;;;18.54;76.68
16094;BME280;8151;47.824;12.092;2022-08-30T01:04:11;96530.31;;;18.49;76.64
16094;BME280;8151;47.824;12.092;2022-08-30T01:06:42;96530.78;;;18.39;76.92
16094;BME280;8151;47.824;12.092;2022-08-30T01:09:11;96528.31;;;18.38;77.05
16094;BME280;8151;47.824;12.092;2022-08-30T01:11:42;96532.06;;;18.37;77.01
16094;BME280;8151;47.824;12.092;2022-08-30T01:14:12;96530.19;;;18.37;77.09
16094;BME280;8151;47.824;12.092;2022-08-30T01:16:42;96529.72;;;18.47;77.01
16094;BME280;8151;47.824;12.092;2022-08-30T01:19:30;96518.53;;;18.57;76.87
16094;BME280;8151;47.824;12.092;2022-08-30T01:22:06;96526.78;;;18.62;76.63
16094;BME280;8151;47.824;12.092;2022-08-30T01:24:38;96522.22;;;18.62;76.47
16094;BME280;8151;47.824;12.092;2022-08-30T01:27:06;96521.63;;;18.60;76.45
16094;BME280;8151;47.824;12.092;2022-08-30T01:29:35;96527.03;;;18.54;76.65
16094;BME280;8151;47.824;12.092;2022-08-30T01:32:04;96528.91;;;18.46;76.79
16094;BME280;8151;47.824;12.092;2022-08-30T01:34:33;96527.28;;;18.39;76.95
16094;BME280;8151;47.824;12.092;2022-08-30T01:37:02;96534.13;;;18.28;77.18
16094;BME280;8151;47.824;12.092;2022-08-30T01:39:30;96529.44;;;18.23;77.15
16094;BME280;8151;47.824;12.092;2022-08-30T01:42:01;96532.50;;;18.20;77.21
16094;BME280;8151;47.824;12.092;2022-08-30T01:44:31;96531.09;;;18.24;77.15
16094;BME280;8151;47.824;12.092;2022-08-30T01:46:59;96537.81;;;18.34;77.10
16094;BME280;8151;47.824;12.092;2022-08-30T01:49:27;96540.88;;;18.44;77.01
16094;BME280;8151;47.824;12.092;2022-08-30T01:51:56;96538.16;;;18.50;76.83
16094;BME280;8151;47.824;12.092;2022-08-30T01:54:28;96526.84;;;18.48;76.73
16094;BME280;8151;47.824;12.092;2022-08-30T01:57:10;96525.63;;;18.44;76.81
16094;BME280;8151;47.824;12.092;2022-08-30T01:59:40;96533.06;;;18.42;76.89
16094;BME280;8151;47.824;12.092;2022-08-30T02:02:09;96542.31;;;18.46;76.80
16094;BME280;8151;47.824;12.092;2022-08-30T02:04:38;96540.03;;;18.50;76.75
16094;BME280;8151;47.824;12.092;2022-08-30T02:07:09;96540.44;;;18.54;76.66
16094;BME280;8151;47.824;12.092;2022-08-30T02:09:38;96537.75;;;18.47;76.75
16094;BME280;8151;47.824;12.092;2022-08-30T02:12:08;96527.09;;;18.34;77.10
16094;BME280;8151;47.824;12.092;2022-08-30T02:14:37;96539.28;;;18.29;77.29
16094;BME280;8151;47.824;12.092;2022-08-30T02:17:09;96532.91;;;18.24;77.47
16094;BME280;8151;47.824;12.092;2022-08-30T02:19:38;96540.34;;;18.28;77.46
16094;BME280;8151;47.824;12.092;2022-08-30T02:22:07;96536.34;;;18.38;77.11
16094;BME280;8151;47.824;12.092;2022-08-30T02:24:36;96537.41;;;18.37;76.93
16094;BME280;8151;47.824;12.092;2022-08-30T02:27:04;96540.50;;;18.34;76.89
16094;BME280;8151;47.824;12.092;2022-08-30T02:29:34;96536.41;;;18.31;76.85
16094;BME280;8151;47.824;12.092;2022-08-30T02:32:03;96537.00;;;18.33;76.83
16094;BME280;8151;47.824;12.092;2022-08-30T02:34:31;96533.25;;;18.41;76.68
16094;BME280;8151;47.824;12.092;2022-08-30T02:37:00;96534.66;;;18.50;76.19
16094;BME280;8151;47.824;12.092;2022-08-30T02:39:28;96529.72;;;18.54;76.09
16094;BME280;8151;47.824;12.092;2022-08-30T02:41:57;96534.28;;;18.46;75.68
16094;BME280;8151;47.824;12.092;2022-08-30T02:44:25;96535.19;;;18.20;76.18
16094;BME280;8151;47.824;12.092;2022-08-30T02:46:55;96535.63;;;18.17;76.18
16094;BME280;8151;47.824;12.092;2022-08-30T02:49:24;96534.00;;;18.09;75.95
16094;BME280;8151;47.824;12.092;2022-08-30T02:52:01;96530.53;;;18.09;75.84
16094;BME280;8151;47.824;12.092;2022-08-30T02:54:30;96541.22;;;18.09;75.54
16094;BME280;8151;47.824;12.092;2022-08-30T02:56:59;96541.66;;;18.06;75.46
16094;BME280;8151;47.824;12.092;2022-08-30T02:59:31;96537.13;;;18.00;75.38
16094;BME280;8151;47.824;12.092;2022-08-30T03:02:03;96532.44;;;17.88;75.25
16094;BME280;8151;47.824;12.092;2022-08-30T03:04:31;96534.50;;;17.73;75.70
16094;BME280;8151;47.824;12.092;2022-08-30T03:07:00;96535.53;;;17.72;75.54
16094;BME280;8151;47.824;12.092;2022-08-30T03:09:28;96541.69;;;17.66;75.56
16094;BME280;8151;47.824;12.092;2022-08-30T03:11:57;96545.84;;;17.55;75.71
16094;BME280;8151;47.824;12.092;2022-08-30T03:14:25;96543.16;;;17.48;76.06
16094;BME280;8151;47.824;12.092;2022-08-30T03:16:54;96545.84;;;17.42;75.63
16094;BME280;8151;47.824;12.092;2022-08-30T03:19:24;96536.81;;;17.36;76.21
16094;BME280;8151;47.824;12.092;2022-08-30T03:21:52;96535.97;;;17.42;75.97
16094;BME280;8151;47.824;12.092;2022-08-30T03:24:21;96537.63;;;17.50;75.79
16094;BME280;8151;47.824;12.092;2022-08-30T03:26:49;96541.75;;;17.46;75.74
16094;BME280;8151;47.824;12.092;2022-08-30T03:29:18;96543.81;;;17.37;75.97
16094;BME280;8151;47.824;12.092;2022-08-30T03:31:47;96544.41;;;17.32;76.26
16094;BME280;8151;47.824;12.092;2022-08-30T03:34:20;96538.44;;;17.30;76.26
16094;BME280;8151;47.824;12.092;2022-08-30T03:36:52;96551.63;;;17.19;76.52
16094;BME280;8151;47.824;12.092;2022-08-30T03:39:22;96548.75;;;17.00;77.16
16094;BME280;8151;47.824;12.092;2022-08-30T03:41:51;96552.03;;;17.02;77.30
16094;BME280;8151;47.824;12.092;2022-08-30T03:44:19;96556.16;;;17.05;77.40
16094;BME280;8151;47.824;12.092;2022-08-30T03:46:49;96546.06;;;17.00;77.38
16094;BME280;8151;47.824;12.092;2022-08-30T03:49:18;96547.31;;;17.04;77.16
16094;BME280;8151;47.824;12.092;2022-08-30T03:51:47;96549.75;;;17.19;76.86
16094;BME280;8151;47.824;12.092;2022-08-30T03:54:17;96550.38;;;17.35;76.62
16094;BME280;8151;47.824;12.092;2022-08-30T03:56:45;96550.78;;;17.51;76.06
16094;BME280;8151;47.824;12.092;2022-08-30T03:59:14;96545.03;;;17.55;75.80
16094;BME280;8151;47.824;12.092;2022-08-30T04:01:43;96540.09;;;17.51;75.93
16094;BME280;8151;47.824;12.092;2022-08-30T04:04:12;96545.22;;;17.60;75.63
16094;BME280;8151;47.824;12.092;2022-08-30T04:06:47;96551.81;;;17.50;75.62
16094;BME280;8151;47.824;12.092;2022-08-30T04:09:17;96547.72;;;17.28;76.15
16094;BME280;8151;47.824;12.092;2022-08-30T04:11:46;96558.00;;;17.31;76.06
16094;BME280;8151;47.824;12.092;2022-08-30T04:14:15;96558.00;;;17.44;75.81
16094;BME280;8151;47.824;12.092;2022-08-30T04:16:44;96550.16;;;17.56;75.19
16094;BME280;8151;47.824;12.092;2022-08-30T04:19:12;96557.56;;;17.54;75.15
16094;BME280;8151;47.824;12.092;2022-08-30T04:21:41;96560.47;;;17.52;75.08
16094;BME280;8151;47.824;12.092;2022-08-30T04:24:11;96548.94;;;17.39;75.38
16094;BME280;8151;47.824;12.092;2022-08-30T04:26:42;96552.63;;;17.31;75.84
16094;BME280;8151;47.824;12.092;2022-08-30T04:29:11;96555.13;;;17.32;75.82
16094;BME280;8151;47.824;12.092;2022-08-30T04:31:43;96552.44;;;17.26;75.80
16094;BME280;8151;47.824;12.092;2022-08-30T04:34:12;96562.13;;;17.20;76.00
16094;BME280;8151;47.824;12.092;2022-08-30T04:36:41;96560.88;;;17.16;76.03
16094;BME280;8151;47.824;12.092;2022-08-30T04:39:15;96560.47;;;17.19;76.02
16094;BME280;8151;47.824;12.092;2022-08-30T04:41:45;96571.78;;;17.28;75.70
16094;BME280;8151;47.824;12.092;2022-08-30T04:44:14;96575.28;;;17.35;75.65
16094;BME280;8151;47.824;12.092;2022-08-30T04:46:45;96573.84;;;17.39;75.49
16094;BME280;8151;47.824;12.092;2022-08-30T04:49:14;96573.41;;;17.42;75.50
16094;BME280;8151;47.824;12.092;2022-08-30T04:51:43;96573.03;;;17.45;75.44
16094;BME280;8151;47.824;12.092;2022-08-30T04:54:11;96582.28;;;17.49;75.38
16094;BME280;8151;47.824;12.092;2022-08-30T04:56:40;96575.88;;;17.50;75.32
16094;BME280;8151;47.824;12.092;2022-08-30T04:59:11;96572.41;;;17.43;75.51
16094;BME280;8151;47.824;12.092;2022-08-30T05:01:40;96585.56;;;17.38;75.68
16094;BME280;8151;47.824;12.092;2022-08-30T05:04:12;96597.91;;;17.32;75.92
16094;BME280;8151;47.824;12.092;2022-08-30T05:06:41;96604.28;;;17.25;76.36
16094;BME280;8151;47.824;12.092;2022-08-30T05:09:10;96609.81;;;17.23;76.41
16094;BME280;8151;47.824;12.092;2022-08-30T05:11:39;96609.63;;;17.18;76.53
16094;BME280;8151;47.824;12.092;2022-08-30T05:14:11;96604.47;;;17.23;76.79
16094;BME280;8151;47.824;12.092;2022-08-30T05:16:40;96601.19;;;17.35;76.32
16094;BME280;8151;47.824;12.092;2022-08-30T05:19:08;96602.44;;;17.39;76.33
16094;BME280;8151;47.824;12.092;2022-08-30T05:21:37;96599.97;;;17.44;76.46
16094;BME280;8151;47.824;12.092;2022-08-30T05:24:07;96615.59;;;17.40;76.70
16094;BME280;8151;47.824;12.092;2022-08-30T05:26:37;96623.84;;;17.45;76.85
16094;BME280;8151;47.824;12.092;2022-08-30T05:29:06;96621.16;;;17.52;76.79
16094;BME280;8151;47.824;12.092;2022-08-30T05:31:36;96627.75;;;17.49;76.85
16094;BME280;8151;47.824;12.092;2022-08-30T05:34:05;96624.66;;;17.46;77.16
16094;BME280;8151;47.824;12.092;2022-08-30T05:36:35;96626.09;;;17.48;77.28
16094;BME280;8151;47.824;12.092;2022-08-30T05:39:05;96628.34;;;17.58;77.34
16094;BME280;8151;47.824;12.092;2022-08-30T05:41:36;96617.06;;;17.76;77.11
16094;BME280;8151;47.824;12.092;2022-08-30T05:44:06;96617.69;;;17.92;76.84
16094;BME280;8151;47.824;12.092;2022-08-30T05:46:37;96621.16;;;17.99;76.74
16094;BME280;8151;47.824;12.092;2022-08-30T05:49:06;96614.34;;;18.03;76.82
16094;BME280;8151;47.824;12.092;2022-08-30T05:51:36;96617.03;;;18.03;76.95
16094;BME280;8151;47.824;12.092;2022-08-30T05:54:09;96607.13;;;18.10;76.89
16094;BME280;8151;47.824;12.092;2022-08-30T05:56:39;96609.56;;;18.18;76.92
16094;BME280;8151;47.824;12.092;2022-08-30T05:59:11;96611.59;;;18.29;76.67
16094;BME280;8151;47.824;12.092;2022-08-30T06:01:43;96599.03;;;18.37;76.61
16094;BME280;8151;47.824;12.092;2022-08-30T06:04:13;96598.81;;;18.38;76.92
16094;BME280;8151;47.824;12.092;2022-08-30T06:06:42;96610.97;;;18.41;77.08
16094;BME280;8151;47.824;12.092;2022-08-30T06:09:12;96598.16;;;18.43;77.27
16094;BME280;8151;47.824;12.092;2022-08-30T06:11:41;96605.56;;;18.47;77.49
16094;BME280;8151;47.824;12.092;2022-08-30T06:14:10;96608.22;;;18.54;77.49
16094;BME280;8151;47.824;12.092;2022-08-30T06:16:41;96606.97;;;18.63;77.63
16094;BME280;8151;47.824;12.092;2022-08-30T06:19:13;96602.75;;;18.74;77.61
16094;BME280;8151;47.824;12.092;2022-08-30T06:21:46;96610.38;;;18.84;77.52
16094;BME280;8151;47.824;12.092;2022-08-30T06:24:16;96602.72;;;18.87;77.65
16094;BME280;8151;47.824;12.092;2022-08-30T06:26:46;96607.22;;;18.94;77.74
16094;BME280;8151;47.824;12.092;2022-08-30T06:29:16;96604.94;;;18.97;77.74
16094;BME280;8151;47.824;12.092;2022-08-30T06:31:47;96608.69;;;18.96;78.02
16094;BME280;8151;47.824;12.092;2022-08-30T06:34:16;96600.84;;;18.95;78.30
16094;BME280;8151;47.824;12.092;2022-08-30T06:36:44;96614.41;;;19.00;78.46
16094;BME280;8151;47.824;12.092;2022-08-30T06:39:13;96605.72;;;19.04;78.50
16094;BME280;8151;47.824;12.092;2022-08-30T06:41:41;96602.19;;;19.11;78.51
16094;BME280;8151;47.824;12.092;2022-08-30T06:44:10;96607.72;;;19.16;78.57
16094;BME280;8151;47.824;12.092;2022-08-30T06:46:38;96609.34;;;19.23;78.42
16094;BME280;8151;47.824;12.092;2022-08-30T06:49:08;96607.03;;;19.27;78.30
16094;BME280;8151;47.824;12.092;2022-08-30T06:51:39;96603.69;;;19.32;78.14
16094;BME280;8151;47.824;12.092;2022-08-30T06:54:10;96609.25;;;19.37;78.16
16094;BME280;8151;47.824;12.092;2022-08-30T06:56:39;96604.84;;;19.42;78.13
16094;BME280;8151;47.824;12.092;2022-08-30T06:59:24;96609.56;;;19.47;77.72
16094;BME280;8151;47.824;12.092;2022-08-30T07:01:53;96606.44;;;19.50;77.80
16094;BME280;8151;47.824;12.092;2022-08-30T07:04:24;96605.56;;;19.56;77.83
16094;BME280;8151;47.824;12.092;2022-08-30T07:06:52;96604.09;;;19.60;77.82
16094;BME280;8151;47.824;12.092;2022-08-30T07:09:21;96607.16;;;19.64;77.86
16094;BME280;8151;47.824;12.092;2022-08-30T07:11:50;96602.53;;;19.71;77.78
16094;BME280;8151;47.824;12.092;2022-08-30T07:14:19;96609.31;;;19.80;77.66
16094;BME280;8151;47.824;12.092;2022-08-30T07:16:48;96605.72;;;19.86;77.79
16094;BME280;8151;47.824;12.092;2022-08-30T07:19:18;96601.56;;;19.91;77.77
16094;BME280;8151;47.824;12.092;2022-08-30T07:21:49;96604.63;;;19.94;77.79
16094;BME280;8151;47.824;12.092;2022-08-30T07:24:19;96609.34;;;19.99;77.66
16094;BME280;8151;47.824;12.092;2022-08-30T07:26:49;96604.13;;;20.04;77.69
16094;BME280;8151;47.824;12.092;2022-08-30T07:29:18;96610.47;;;20.10;77.65
16094;BME280;8151;47.824;12.092;2022-08-30T07:31:48;96605.03;;;20.16;77.54
16094;BME280;8151;47.824;12.092;2022-08-30T07:34:16;96608.47;;;20.23;77.51
16094;BME280;8151;47.824;12.092;2022-08-30T07:36:50;96599.06;;;20.33;77.16
16094;BME280;8151;47.824;12.092;2022-08-30T07:39:19;96609.28;;;20.42;77.10
16094;BME280;8151;47.824;12.092;2022-08-30T07:41:48;96604.44;;;20.51;76.88
16094;BME280;8151;47.824;12.092;2022-08-30T07:44:16;96593.59;;;20.58;77.03
16094;BME280;8151;47.824;12.092;2022-08-30T07:46:49;96605.13;;;20.65;76.86
16094;BME280;8151;47.824;12.092;2022-08-30T07:49:18;96603.41;;;20.71;76.73
16094;BME280;8151;47.824;12.092;2022-08-30T07:51:46;96602.88;;;20.80;76.75
16094;BME280;8151;47.824;12.092;2022-08-30T07:54:16;96602.75;;;20.87;76.58
16094;BME280;8151;47.824;12.092;2022-08-30T07:56:45;96609.31;;;20.91;76.22
16094;BME280;8151;47.824;12.092;2022-08-30T07:59:14;96610.50;;;20.95;76.31
16094;BME280;8151;47.824;12.092;2022-08-30T08:01:43;96612.06;;;21.03;76.07
16094;BME280;8151;47.824;12.092;2022-08-30T08:04:11;96618.97;;;21.11;75.96
16094;BME280;8151;47.824;12.092;2022-08-30T08:06:40;96606.47;;;21.16;75.78
16094;BME280;8151;47.824;12.092;2022-08-30T08:09:08;96604.16;;;21.20;75.63
16094;BME280;8151;47.824;12.092;2022-08-30T08:11:39;96598.56;;;21.21;75.63
16094;BME280;8151;47.824;12.092;2022-08-30T08:14:08;96597.84;;;21.26;75.74
16094;BME280;8151;47.824;12.092;2022-08-30T08:16:37;96600.19;;;21.34;75.65
16094;BME280;8151;47.824;12.092;2022-08-30T08:19:06;96606.94;;;21.43;75.58
16094;BME280;8151;47.824;12.092;2022-08-30T08:21:36;96606.00;;;21.50;75.23
16094;BME280;8151;47.824;12.092;2022-08-30T08:24:05;96607.19;;;21.54;75.22
16094;BME280;8151;47.824;12.092;2022-08-30T08:26:34;96601.69;;;21.60;75.24
16094;BME280;8151;47.824;12.092;2022-08-30T08:29:06;96587.53;;;21.65;75.05
16094;BME280;8151;47.824;12.092;2022-08-30T08:31:35;96591.53;;;21.74;75.23
16094;BME280;8151;47.824;12.092;2022-08-30T08:34:04;96599.81;;;21.85;75.03
16094;BME280;8151;47.824;12.092;2022-08-30T08:36:34;96595.38;;;21.90;74.94
16094;BME280;8151;47.824;12.092;2022-08-30T08:39:05;96593.41;;;21.97;74.65
16094;BME280;8151;47.824;12.092;2022-08-30T08:41:41;96596.91;;;21.98;74.46
16094;BME280;8151;47.824;12.092;2022-08-30T08:44:24;96592.59;;;21.97;74.48
16094;BME280;8151;47.824;12.092;2022-08-30T08:47:09;96594.34;;;22.03;74.19
16094;BME280;8151;47.824;12.092;2022-08-30T08:49:41;96592.09;;;22.12;74.36
16094;BME280;8151;47.824;12.092;2022-08-30T08:52:23;96589.63;;;22.22;74.28
16094;BME280;8151;47.824;12.092;2022-08-30T08:55:14;96582.59;;;22.33;74.38
16094;BME280;8151;47.824;12.092;2022-08-30T08:57:45;96582.81;;;22.43;74.20
16094;BME280;8151;47.824;12.092;2022-08-30T09:00:15;96580.56;;;22.52;74.03
16094;BME280;8151;47.824;12.092;2022-08-30T09:02:47;96582.41;;;22.63;73.67
16094;BME280;8151;47.824;12.092;2022-08-30T09:05:22;96585.53;;;22.72;73.56
16094;BME280;8151;47.824;12.092;2022-08-30T09:07:57;96588.69;;;22.80;73.63
16094;BME280;8151;47.824;12.092;2022-08-30T09:10:31;96592.13;;;22.93;73.40
16094;BME280;8151;47.824;12.092;2022-08-30T09:13:17;96582.50;;;22.97;73.42
16094;BME280;8151;47.824;12.092;2022-08-30T09:15:51;96579.19;;;23.07;73.38
16094;BME280;8151;47.824;12.092;2022-08-30T09:18:40;96574.34;;;23.21;72.78
16094;BME280;8151;47.824;12.092;2022-08-30T09:21:13;96577.91;;;23.26;73.01
16094;BME280;8151;47.824;12.092;2022-08-30T09:23:48;96578.00;;;23.31;72.65
16094;BME280;8151;47.824;12.092;2022-08-30T09:26:28;96569.44;;;23.34;72.61
16094;BME280;8151;47.824;12.092;2022-08-30T09:28:56;96574.19;;;23.44;72.67
16094;BME280;8151;47.824;12.092;2022-08-30T09:31:29;96573.53;;;23.54;72.35
16094;BME280;8151;47.824;12.092;2022-08-30T09:34:00;96568.03;;;23.66;71.96
16094;BME280;8151;47.824;12.092;2022-08-30T09:36:33;96575.41;;;23.70;71.44
16094;BME280;8151;47.824;12.092;2022-08-30T09:39:04;96574.06;;;23.73;71.08
16094;BME280;8151;47.824;12.092;2022-08-30T09:41:37;96570.16;;;23.81;70.84
16094;BME280;8151;47.824;12.092;2022-08-30T09:44:10;96560.19;;;23.81;71.28
16094;BME280;8151;47.824;12.092;2022-08-30T09:46:45;96557.75;;;23.80;70.81
16094;BME280;8151;47.824;12.092;2022-08-30T09:49:28;96547.59;;;23.87;70.64
16094;BME280;8151;47.824;12.092;2022-08-30T09:55:00;96539.25;;;24.10;71.17
16094;BME280;8151;47.824;12.092;2022-08-30T09:57:35;96541.50;;;24.18;70.97
16094;BME280;8151;47.824;12.092;2022-08-30T10:00:11;96539.78;;;24.29;70.67
16094;BME280;8151;47.824;12.092;2022-08-30T10:03:11;96546.09;;;24.40;70.42
16094;BME280;8151;47.824;12.092;2022-08-30T10:06:08;96533.78;;;24.49;70.30
16094;BME280;8151;47.824;12.092;2022-08-30T10:08:50;96531.47;;;24.58;69.95
16094;BME280;8151;47.824;12.092;2022-08-30T10:11:26;96537.31;;;24.72;69.63
16094;BME280;8151;47.824;12.092;2022-08-30T10:16:53;96527.50;;;24.93;68.35
16094;BME280;8151;47.824;12.092;2022-08-30T10:19:35;96527.38;;;25.05;68.01
16094;BME280;8151;47.824;12.092;2022-08-30T10:22:11;96522.03;;;25.15;67.99
16094;BME280;8151;47.824;12.092;2022-08-30T10:24:43;96512.69;;;25.28;67.66
16094;BME280;8151;47.824;12.092;2022-08-30T10:27:17;96515.78;;;25.42;67.41
16094;BME280;8151;47.824;12.092;2022-08-30T10:29:51;96513.94;;;25.52;67.23
16094;BME280;8151;47.824;12.092;2022-08-30T10:32:26;96513.75;;;25.59;67.09
16094;BME280;8151;47.824;12.092;2022-08-30T10:35:02;96498.59;;;25.63;66.37
16094;BME280;8151;47.824;12.092;2022-08-30T10:37:37;96504.03;;;25.68;66.33
16094;BME280;8151;47.824;12.092;2022-08-30T10:40:12;96496.53;;;25.81;65.71
16094;BME280;8151;47.824;12.092;2022-08-30T10:43:02;96491.47;;;25.95;65.10
16094;BME280;8151;47.824;12.092;2022-08-30T10:45:39;96498.88;;;26.09;64.12
16094;BME280;8151;47.824;12.092;2022-08-30T10:48:12;96502.44;;;26.20;63.05
16094;BME280;8151;47.824;12.092;2022-08-30T10:50:48;96489.97;;;26.24;62.12
16094;BME280;8151;47.824;12.092;2022-08-30T10:53:23;96484.59;;;26.29;61.84
16094;BME280;8151;47.824;12.092;2022-08-30T10:56:00;96487.06;;;26.41;61.47
16094;BME280;8151;47.824;12.092;2022-08-30T10:58:30;96483.28;;;26.47;61.04
16094;BME280;8151;47.824;12.092;2022-08-30T11:01:17;96481.13;;;26.55;59.89
16094;BME280;8151;47.824;12.092;2022-08-30T11:04:21;96495.00;;;26.63;59.10
16094;BME280;8151;47.824;12.092;2022-08-30T11:07:00;96491.50;;;26.68;59.18
16094;BME280;8151;47.824;12.092;2022-08-30T11:09:48;96492.06;;;26.75;58.71
16094;BME280;8151;47.824;12.092;2022-08-30T11:12:31;96488.28;;;26.81;58.84
16094;BME280;8151;47.824;12.092;2022-08-30T11:15:12;96486.38;;;26.92;58.51
16094;BME280;8151;47.824;12.092;2022-08-30T11:17:45;96483.13;;;27.00;58.21
16094;BME280;8151;47.824;12.092;2022-08-30T11:20:27;96488.56;;;27.16;57.84
16094;BME280;8151;47.824;12.092;2022-08-30T11:23:25;96494.03;;;27.31;56.75
16094;BME280;8151;47.824;12.092;2022-08-30T11:26:02;96480.72;;;27.40;56.94
16094;BME280;8151;47.824;12.092;2022-08-30T11:29:00;96475.81;;;27.47;55.74
16094;BME280;8151;47.824;12.092;2022-08-30T11:31:46;96480.41;;;27.57;54.78
16094;BME280;8151;47.824;12.092;2022-08-30T11:34:57;96473.91;;;27.63;54.70
16094;BME280;8151;47.824;12.092;2022-08-30T11:37:36;96477.97;;;27.71;54.99
16094;BME280;8151;47.824;12.092;2022-08-30T11:42:56;96476.00;;;27.81;53.59
16094;BME280;8151;47.824;12.092;2022-08-30T11:45:48;96468.13;;;27.85;52.56
16094;BME280;8151;47.824;12.092;2022-08-30T11:48:47;96467.31;;;27.89;52.08
16094;BME280;8151;47.824;12.092;2022-08-30T11:54:49;96466.47;;;27.99;52.33
16094;BME280;8151;47.824;12.092;2022-08-30T11:57:27;96459.94;;;28.00;51.86
16094;BME280;8151;47.824;12.092;2022-08-30T12:00:05;96456.69;;;28.03;52.13
16094;BME280;8151;47.824;12.092;2022-08-30T12:02:45;96451.22;;;28.08;51.62
16094;BME280;8151;47.824;12.092;2022-08-30T12:12:02;96455.75;;;28.28;50.80
16094;BME280;8151;47.824;12.092;2022-08-30T12:14:45;96452.97;;;28.39;50.05
16094;BME280;8151;47.824;12.092;2022-08-30T12:17:47;96454.31;;;28.46;49.20
16094;BME280;8151;47.824;12.092;2022-08-30T12:20:45;96451.56;;;28.52;49.84
16094;BME280;8151;47.824;12.092;2022-08-30T12:23:19;96445.84;;;28.53;49.36
16094;BME280;8151;47.824;12.092;2022-08-30T12:25:49;96449.91;;;28.51;48.74
16094;BME280;8151;47.824;12.092;2022-08-30T12:28:37;96443.94;;;28.48;48.87
16094;BME280;8151;47.824;12.092;2022-08-30T12:31:12;96439.84;;;28.56;48.91
16094;BME280;8151;47.824;12.092;2022-08-30T12:33:45;96442.50;;;28.66;48.71
16094;BME280;8151;47.824;12.092;2022-08-30T12:36:32;96436.16;;;28.76;48.62
16094;BME280;8151;47.824;12.092;2022-08-30T12:39:14;96439.34;;;28.89;48.41
16094;BME280;8151;47.824;12.092;2022-08-30T12:41:43;96433.31;;;28.97;48.21
16094;BME280;8151;47.824;12.092;2022-08-30T12:44:15;96433.25;;;29.02;48.30
16094;BME280;8151;47.824;12.092;2022-08-30T12:46:50;96433.50;;;29.05;47.75
16094;BME280;8151;47.824;12.092;2022-08-30T12:49:29;96428.00;;;29.11;47.55
16094;BME280;8151;47.824;12.092;2022-08-30T12:52:15;96427.47;;;29.09;47.13
16094;BME280;8151;47.824;12.092;2022-08-30T12:54:45;96422.31;;;29.12;47.53
16094;BME280;8151;47.824;12.092;2022-08-30T12:57:35;96418.72;;;29.17;47.04
16094;BME280;8151;47.824;12.092;2022-08-30T13:00:05;96418.97;;;29.20;47.31
16094;BME280;8151;47.824;12.092;2022-08-30T13:02:45;96409.63;;;29.27;46.98
16094;BME280;8151;47.824;12.092;2022-08-30T13:05:32;96419.13;;;29.29;46.92
16094;BME280;8151;47.824;12.092;2022-08-30T13:08:16;96407.78;;;29.22;47.02
16094;BME280;8151;47.824;12.092;2022-08-30T13:10:59;96412.19;;;29.18;46.73
16094;BME280;8151;47.824;12.092;2022-08-30T13:13:38;96412.97;;;29.18;47.12
16094;BME280;8151;47.824;12.092;2022-08-30T13:16:26;96410.97;;;29.29;46.81
16094;BME280;8151;47.824;12.092;2022-08-30T13:19:17;96404.03;;;29.42;46.12
16094;BME280;8151;47.824;12.092;2022-08-30T13:21:50;96410.53;;;29.46;45.79
16094;BME280;8151;47.824;12.092;2022-08-30T13:24:19;96400.44;;;29.47;45.42
16094;BME280;8151;47.824;12.092;2022-08-30T13:26:53;96406.91;;;29.51;45.34
16094;BME280;8151;47.824;12.092;2022-08-30T13:29:24;96401.09;;;29.62;45.40
16094;BME280;8151;47.824;12.092;2022-08-30T13:31:54;96401.03;;;29.68;44.81
16094;BME280;8151;47.824;12.092;2022-08-30T13:34:24;96403.97;;;29.76;44.32
16094;BME280;8151;47.824;12.092;2022-08-30T13:36:55;96396.59;;;29.77;44.62
16094;BME280;8151;47.824;12.092;2022-08-30T13:39:24;96397.16;;;29.74;44.36
16094;BME280;8151;47.824;12.092;2022-08-30T13:41:53;96393.34;;;29.75;43.91
16094;BME280;8151;47.824;12.092;2022-08-30T13:44:42;96390.63;;;29.75;44.27
16094;BME280;8151;47.824;12.092;2022-08-30T13:47:14;96382.91;;;29.82;44.05
16094;BME280;8151;47.824;12.092;2022-08-30T13:50:03;96377.72;;;29.80;44.34